Latest Coastal Weather Observations for Smithton

IDV60701

Issued at 9:21 am EST Thursday 25 August 2016 (issued every 10 minutes, with the page automatically refreshed every 10 minutes)

About coastal observations | Map of coastal stations | Coastal observations for VIC | Marine services | Other Formats
Station Details ID: 091292 Name: SMITHTON AERODROME Lat: -40.83 Lon: 145.08 Height: 7.5 m
Data from the previous 72 hours. | See also: Recent months at Smithton
Date/Time
EST
Temp
°C
Wind Pressure Rain since
9am
mm
Weather Cloud Vis
km
Sea
Height
m
Swell
Dir  Spd
kts
Gust
kts
hPa Trend Height
m
Period
s
Dir
25/09:00am 7.3 S 6 8 1013.1 - 1.4 - - - - - - -
25/08:30am 5.2 S 5 6 1012.9 - 1.4 - - - - - - -
25/08:00am 3.7 S 5 6 1012.6 - 1.4 - - - - - - -
25/07:30am 1.8 SSW 6 8 1012.3 - 1.4 - - - - - - -
25/07:00am 1.3 SSW 7 8 1012.2 - 1.4 - - - - - - -
25/06:30am 2.1 SW 8 11 1012.0 - 1.4 - - - - - - -
25/06:00am 1.1 SW 8 8 1011.6 - 1.4 - - - - - - -
25/05:30am 1.5 SSW 6 7 1011.7 - 1.4 - - - - - - -
25/05:00am 1.2 SSW 6 7 1011.3 - 1.4 - - - - - - -
25/04:30am 0.9 S 4 5 1011.1 - 1.4 - - - - - - -
25/04:00am 1.2 S 6 6 1011.2 - 1.4 - - - - - - -
25/03:30am 1.7 S 6 6 1011.2 - 1.4 - - - - - - -
25/03:00am 1.3 S 4 5 1011.3 - 1.4 - - - - - - -
25/02:30am 1.8 S 3 4 1011.3 - 1.4 - - - - - - -
25/02:00am 2.3 S 3 4 1011.3 - 1.4 - - - - - - -
25/01:30am 2.8 S 5 6 1011.5 - 1.4 - - - - - - -
25/01:00am 3.0 SW 4 5 1011.5 - 1.4 - - - - - - -
25/12:30am 3.6 SW 4 5 1011.7 - 1.4 - - - - - - -
25/12:00am 3.8 SW 5 6 1011.9 - 1.4 - - - - - - -
 
Date/Time
EST
Temp
°C
Wind Pressure Rain since
9am
mm
Weather Cloud Vis
km
Sea
Height
m
Swell
Dir  Spd
kts
Gust
kts
hPa Trend Height
m
Period
s
Dir
24/11:30pm 3.9 SW 5 6 1011.9 - 1.4 - - - - - - -
24/11:00pm 4.5 SSW 7 9 1011.9 - 1.4 - - - - - - -
24/10:30pm 4.9 WSW 9 9 1012.0 - 1.4 - - - - - - -
24/10:00pm 5.6 WSW 7 8 1012.0 - 1.2 - - - - - - -
24/09:30pm 5.5 WSW 8 9 1012.4 - 1.2 - - - - - - -
24/09:00pm 6.0 WSW 8 9 1012.7 - 1.2 - - - - - - -
24/08:30pm 6.5 WSW 7 9 1012.8 - 1.2 - - - - - - -
24/08:00pm 5.8 SW 5 6 1013.0 - 1.0 - - - - - - -
24/07:30pm 6.4 SW 7 9 1013.1 - 0.8 - - - - - - -
24/07:00pm 6.3 W 5 6 1013.0 - 0.8 - - - - - - -
24/06:30pm 6.5 W 4 5 1012.8 - 0.8 - - - - - - -
24/06:00pm 6.9 W 5 6 1012.6 - 0.8 - - - - - - -
24/05:30pm 8.0 WSW 7 8 1012.7 - 0.8 - - - - - - -
24/05:00pm 8.6 WSW 9 11 1012.6 - 0.8 - - - - - - -
24/04:30pm 9.6 SW 12 15 1012.7 - 0.8 - - - - - - -
24/04:00pm 10.3 SW 13 17 1012.6 - 0.8 - - - - - - -
24/03:30pm 9.4 SW 13 16 1012.6 - 0.8 - - - - - - -
24/03:00pm 9.8 SSW 13 17 1012.6 - 0.8 - - - - - - -
24/02:30pm 11.8 SW 9 16 1012.5 - 0.8 - - - - - - -
24/02:00pm 10.9 SW 9 11 1012.8 - 0.8 - - - - - - -
24/01:30pm 9.3 SW 16 22 1013.3 - 0.6 - - - - - - -
24/01:00pm 11.8 WSW 9 14 1013.5 - 0.0 - - - - - - -
24/12:30pm 10.2 SSW 12 15 1014.0 - 0.0 - - - - - - -
24/12:00pm 11.9 SW 10 15 1014.4 - 0.0 - - - - - - -
24/11:30am 10.7 SSW 7 10 1014.8 - 0.0 - - - - - - -
24/11:00am 9.6 SSW 8 11 1015.2 - 0.0 - - - - - - -
24/10:30am 10.5 SW 10 14 1015.4 - 0.0 - - - - - - -
24/10:00am 8.8 S 6 7 1015.7 - 0.0 - - - - - - -
24/09:30am 8.4 SSW 5 9 1015.9 - 0.0 - - - - - - -
24/09:00am 6.7 S 4 5 1016.2 - 0.2 - - - - - - -
24/08:30am 5.1 S 2 4 1016.3 - 0.2 - - - - - - -
24/08:00am 3.8 SE 1 5 1016.4 - 0.2 - - - - - - -
24/07:30am 2.3 W 4 6 1016.2 - 0.2 - - - - - - -
24/07:00am 2.9 CALM 0 5 1016.2 - 0.2 - - - - - - -
24/06:30am 3.4 S 6 7 1016.2 - 0.2 - - - - - - -
24/06:00am 2.1 S 4 7 1016.2 - 0.2 - - - - - - -
24/05:30am 2.4 S 3 5 1015.9 - 0.2 - - - - - - -
24/05:00am 1.9 S 1 5 1015.9 - 0.2 - - - - - - -
24/04:30am 1.9 S 5 6 1015.7 - 0.2 - - - - - - -
24/04:00am 1.8 S 2 4 1015.7 - 0.2 - - - - - - -
24/03:30am 1.9 S 4 6 1015.9 - 0.2 - - - - - - -
24/03:00am 1.6 CALM 0 0 1016.0 - 0.2 - - - - - - -
24/02:30am 2.2 CALM 0 0 1016.3 - 0.2 - - - - - - -
24/02:00am 1.8 WSW 3 3 1016.5 - 0.0 - - - - - - -
24/01:30am 1.4 SSW 5 6 1016.5 - 0.0 - - - - - - -
24/01:00am 2.3 S 4 5 1016.6 - 0.0 - - - - - - -
24/12:30am 2.2 S 6 6 1016.7 - 0.0 - - - - - - -
24/12:00am 2.7 S 5 6 1016.9 - 0.0 - - - - - - -
 
Date/Time
EST
Temp
°C
Wind Pressure Rain since
9am
mm
Weather Cloud Vis
km
Sea
Height
m
Swell
Dir  Spd
kts
Gust
kts
hPa Trend Height
m
Period
s
Dir
23/11:30pm 2.9 S 5 5 1017.1 - 0.0 - - - - - - -
23/11:00pm 4.1 WSW 4 6 1017.5 - 0.0 - - - - - - -
23/10:30pm 3.8 CALM 0 0 1017.6 - 0.0 - - - - - - -
23/10:00pm 4.4 CALM 0 0 1017.9 - 0.0 - - - - - - -
23/09:30pm 4.1 CALM 0 0 1017.9 - 0.0 - - - - - - -
23/09:00pm 4.4 CALM 0 3 1017.8 - 0.0 - - - - - - -
23/08:30pm 4.5 WSW 3 4 1017.6 - 0.0 - - - - - - -
23/08:00pm 4.9 WSW 4 4 1017.3 - 0.0 - - - - - - -
23/07:30pm 5.1 WSW 3 4 1017.4 - 0.0 - - - - - - -
23/07:00pm 5.6 WSW 6 6 1017.3 - 0.0 - - - - - - -
23/06:30pm 6.7 WSW 7 7 1017.0 - 0.0 - - - - - - -
23/06:00pm 7.4 WSW 7 9 1016.8 - 0.0 - - - - - - -
23/05:30pm 8.5 WSW 8 9 1016.5 - 0.0 - - - - - - -
23/05:00pm 9.1 W 8 9 1016.4 - 0.0 - - - - - - -
23/04:30pm 9.7 WSW 8 10 1016.1 - 0.0 - - - - - - -
23/04:00pm 10.0 WSW 9 11 1015.9 - 0.0 - - - - - - -
23/03:30pm 10.8 SW 11 16 1015.7 - 0.0 - - - - - - -
23/03:00pm 11.2 SW 13 16 1015.4 - 0.0 - - - - - - -
23/02:30pm 11.0 SW 12 16 1015.2 - 0.0 - - - - - - -
23/02:00pm 11.3 SSW 13 17 1015.1 - 0.0 - - - - - - -
23/01:30pm 11.9 SW 14 17 1015.3 - 0.0 - - - - - - -
23/01:00pm 11.8 SSW 10 14 1015.6 - 0.0 - - - - - - -
23/12:30pm 11.8 SW 12 17 1015.9 - 0.0 - - - - - - -
23/12:00pm 11.6 SSW 11 15 1016.3 - 0.0 - - - - - - -
23/11:30am 10.7 SSW 15 22 1016.6 - 0.0 - - - - - - -
23/11:00am 10.7 SW 11 16 1016.7 - 0.0 - - - - - - -
23/10:30am 10.4 SSW 9 13 1016.8 - 0.0 - - - - - - -
23/10:00am 9.0 SSW 4 8 1016.9 - 0.0 - - - - - - -
23/09:30am 7.2 S 3 4 1016.8 - 0.0 - - - - - - -
23/09:00am 6.2 CALM 0 3 1016.8 - 2.2 - - - - - - -
23/08:30am 4.5 CALM 0 0 1016.6 - 2.2 - - - - - - -
23/08:00am 2.7 S 2 4 1016.6 - 2.2 - - - - - - -
23/07:30am 1.2 S 3 4 1016.2 - 2.2 - - - - - - -
23/07:00am 1.4 CALM 0 0 1016.0 - 2.2 - - - - - - -
23/06:30am 1.5 S 1 3 1015.7 - 2.2 - - - - - - -
23/06:00am 2.1 S 3 4 1015.6 - 2.2 - - - - - - -
23/05:30am 2.0 S 5 5 1015.4 - 2.2 - - - - - - -
23/05:00am 2.5 S 4 5 1015.3 - 2.2 - - - - - - -
23/04:30am 2.9 S 4 5 1015.3 - 2.2 - - - - - - -
23/04:00am 3.0 S 5 6 1015.1 - 2.2 - - - - - - -
23/03:30am 3.4 CALM 0 0 1015.1 - 2.2 - - - - - - -
23/03:00am 4.2 CALM 0 0 1015.1 - 2.2 - - - - - - -
23/02:30am 5.1 CALM 0 0 1015.4 - 2.2 - - - - - - -
23/02:00am 5.6 S 4 6 1015.7 - 2.2 - - - - - - -
23/01:30am 5.4 S 3 4 1015.8 - 1.8 - - - - - - -
23/01:00am 5.4 NW 2 4 1015.9 - 1.6 - - - - - - -
23/12:30am 4.8 NW 3 4 1015.8 - 1.4 - - - - - - -
23/12:00am 5.4 NW 4 5 1015.7 - 1.4 - - - - - - -
 
Date/Time
EST
Temp
°C
Wind Pressure Rain since
9am
mm
Weather Cloud Vis
km
Sea
Height
m
Swell
Dir  Spd
kts
Gust
kts
hPa Trend Height
m
Period
s
Dir
22/11:30pm 5.6 SW 5 7 1015.8 - 1.2 - - - - - - -
22/11:00pm 5.2 SSW 4 4 1015.6 - 1.0 - - - - - - -
22/10:30pm 5.7 SSW 3 4 1015.5 - 1.0 - - - - - - -
22/10:00pm 5.9 SSW 5 6 1015.5 - 1.0 - - - - - - -
22/09:30pm 4.4 CALM 0 5 1015.4 - 0.4 - - - - - - -
22/09:00pm 5.2 WSW 5 6 1015.1 - 0.2 - - - - - - -
22/08:30pm 5.3 S 4 5 1014.8 - 0.2 - - - - - - -
22/08:00pm 5.4 SSW 3 4 1014.7 - 0.2 - - - - - - -
22/07:30pm 5.5 SSW 5 6 1014.4 - 0.2 - - - - - - -
22/07:00pm 6.7 SW 5 5 1014.1 - 0.2 - - - - - - -
22/06:30pm 7.2 WSW 6 8 1014.0 - 0.2 - - - - - - -
22/06:00pm 8.1 WSW 8 9 1013.7 - 0.2 - - - - - - -
22/05:30pm 8.4 WSW 7 9 1013.4 - 0.2 - - - - - - -
22/05:00pm 8.9 WSW 7 8 1013.2 - 0.2 - - - - - - -
22/04:30pm 8.8 SSW 16 22 1013.2 - 0.0 - - - - - - -
22/04:22pm 9.6 SSW 18 22 1013.0 - 0.0 - - - - - - -
22/04:00pm 11.1 WSW 7 11 1012.8 - 0.0 - - - - - - -
22/03:30pm 12.4 WSW 11 15 1012.7 - 0.0 - - - - - - -
22/03:00pm 11.4 SW 10 13 1012.6 - 0.0 - - - - - - -
22/02:30pm 11.1 SW 10 16 1012.5 - 0.0 - - - - - - -
22/02:00pm 10.6 SSW 17 23 1012.6 - 0.0 - - - - - - -
22/01:30pm 11.8 W 13 17 1012.4 - 0.0 - - - - - - -
22/01:00pm 12.1 W 11 15 1012.5 - 0.0 - - - - - - -
22/12:30pm 12.1 W 14 19 1012.7 - 0.0 - - - - - - -
22/12:00pm 12.1 WSW 13 16 1013.1 - 0.0 - - - - - - -
22/11:30am 12.1 SW 12 15 1013.3 - 0.0 - - - - - - -
22/11:00am 12.1 W 11 15 1013.3 - 0.0 - - - - - - -
22/10:30am 11.1 WSW 10 14 1013.4 - 0.0 - - - - - - -
22/10:00am 10.3 WSW 10 12 1013.4 - 0.0 - - - - - - -
22/09:30am 7.8 S 4 5 1013.4 - 0.0 - - - - - - -

Other Formats:

Comma delimited format used in spreadsheet applications
http://www.bom.gov.au/fwo/IDV60701/IDV60701.94953.axf

JavaScript Object Notation format (JSON) in row-major order
http://www.bom.gov.au/fwo/IDV60701/IDV60701.94953.json